sensor_id;sensor_type;location;lat;lon;timestamp;temperature;humidity
19561;DHT22;9927;47.792;10.616;2023-07-20T00:00:15;21.00;95.20
19561;DHT22;9927;47.792;10.616;2023-07-20T00:02:43;21.00;95.10
19561;DHT22;9927;47.792;10.616;2023-07-20T00:05:11;20.90;95.60
19561;DHT22;9927;47.792;10.616;2023-07-20T00:07:38;20.90;95.40
19561;DHT22;9927;47.792;10.616;2023-07-20T00:10:06;20.90;95.60
19561;DHT22;9927;47.792;10.616;2023-07-20T00:12:33;20.90;95.20
19561;DHT22;9927;47.792;10.616;2023-07-20T00:15:00;20.90;95.30
19561;DHT22;9927;47.792;10.616;2023-07-20T00:17:28;20.90;95.10
19561;DHT22;9927;47.792;10.616;2023-07-20T00:19:55;20.90;95.20
19561;DHT22;9927;47.792;10.616;2023-07-20T00:22:22;20.80;95.50
19561;DHT22;9927;47.792;10.616;2023-07-20T00:24:49;20.70;95.60
19561;DHT22;9927;47.792;10.616;2023-07-20T00:27:17;20.60;95.70
19561;DHT22;9927;47.792;10.616;2023-07-20T00:29:44;20.60;95.90
19561;DHT22;9927;47.792;10.616;2023-07-20T00:32:11;20.60;96.40
19561;DHT22;9927;47.792;10.616;2023-07-20T00:34:38;20.50;96.50
19561;DHT22;9927;47.792;10.616;2023-07-20T00:37:05;20.50;96.30
19561;DHT22;9927;47.792;10.616;2023-07-20T00:39:33;20.60;96.40
19561;DHT22;9927;47.792;10.616;2023-07-20T00:42:00;20.60;96.20
19561;DHT22;9927;47.792;10.616;2023-07-20T00:44:28;20.60;96.20
19561;DHT22;9927;47.792;10.616;2023-07-20T00:46:55;20.60;96.20
19561;DHT22;9927;47.792;10.616;2023-07-20T00:49:23;20.70;96.00
19561;DHT22;9927;47.792;10.616;2023-07-20T00:51:51;20.70;95.80
19561;DHT22;9927;47.792;10.616;2023-07-20T00:54:18;20.80;95.70
19561;DHT22;9927;47.792;10.616;2023-07-20T00:56:46;20.70;97.30
19561;DHT22;9927;47.792;10.616;2023-07-20T00:59:13;20.60;98.00
19561;DHT22;9927;47.792;10.616;2023-07-20T01:01:41;20.40;98.90
19561;DHT22;9927;47.792;10.616;2023-07-20T01:04:08;20.40;98.10
19561;DHT22;9927;47.792;10.616;2023-07-20T01:06:54;20.50;98.10
19561;DHT22;9927;47.792;10.616;2023-07-20T01:09:31;20.60;98.40
19561;DHT22;9927;47.792;10.616;2023-07-20T01:12:32;20.60;98.00
19561;DHT22;9927;47.792;10.616;2023-07-20T01:15:02;20.70;97.80
19561;DHT22;9927;47.792;10.616;2023-07-20T01:17:29;20.60;97.90
19561;DHT22;9927;47.792;10.616;2023-07-20T01:19:57;20.40;98.30
19561;DHT22;9927;47.792;10.616;2023-07-20T01:28:17;20.40;98.20
19561;DHT22;9927;47.792;10.616;2023-07-20T01:31:23;20.40;98.00
19561;DHT22;9927;47.792;10.616;2023-07-20T01:33:56;20.50;98.30
19561;DHT22;9927;47.792;10.616;2023-07-20T01:36:26;20.40;98.40
19561;DHT22;9927;47.792;10.616;2023-07-20T01:38:56;20.40;98.70
19561;DHT22;9927;47.792;10.616;2023-07-20T01:41:23;20.40;98.70
19561;DHT22;9927;47.792;10.616;2023-07-20T01:43:50;20.40;98.60
19561;DHT22;9927;47.792;10.616;2023-07-20T01:46:18;20.50;98.40
19561;DHT22;9927;47.792;10.616;2023-07-20T01:48:46;20.50;97.90
19561;DHT22;9927;47.792;10.616;2023-07-20T01:51:13;20.50;98.10
19561;DHT22;9927;47.792;10.616;2023-07-20T01:53:40;20.50;97.90
19561;DHT22;9927;47.792;10.616;2023-07-20T01:56:08;20.50;97.80
19561;DHT22;9927;47.792;10.616;2023-07-20T01:58:35;20.50;97.80
19561;DHT22;9927;47.792;10.616;2023-07-20T02:01:02;20.50;98.20
19561;DHT22;9927;47.792;10.616;2023-07-20T02:03:30;20.40;98.60
19561;DHT22;9927;47.792;10.616;2023-07-20T02:05:57;20.50;98.20
19561;DHT22;9927;47.792;10.616;2023-07-20T02:08:24;20.40;98.20
19561;DHT22;9927;47.792;10.616;2023-07-20T02:10:52;20.40;98.20
19561;DHT22;9927;47.792;10.616;2023-07-20T02:13:19;20.40;98.30
19561;DHT22;9927;47.792;10.616;2023-07-20T02:15:46;20.50;99.50
19561;DHT22;9927;47.792;10.616;2023-07-20T02:18:16;20.30;99.90
19561;DHT22;9927;47.792;10.616;2023-07-20T02:20:43;20.30;99.90
19561;DHT22;9927;47.792;10.616;2023-07-20T02:23:10;20.30;99.90
19561;DHT22;9927;47.792;10.616;2023-07-20T02:25:38;20.20;99.90
19561;DHT22;9927;47.792;10.616;2023-07-20T02:28:07;20.00;99.90
19561;DHT22;9927;47.792;10.616;2023-07-20T02:30:38;19.90;99.90
19561;DHT22;9927;47.792;10.616;2023-07-20T02:33:07;19.90;99.90
19561;DHT22;9927;47.792;10.616;2023-07-20T02:35:34;19.90;99.90
19561;DHT22;9927;47.792;10.616;2023-07-20T02:38:01;19.90;99.90
19561;DHT22;9927;47.792;10.616;2023-07-20T02:40:29;19.80;99.90
19561;DHT22;9927;47.792;10.616;2023-07-20T02:42:56;19.80;99.90
19561;DHT22;9927;47.792;10.616;2023-07-20T02:45:23;19.80;99.90
19561;DHT22;9927;47.792;10.616;2023-07-20T02:47:50;19.80;99.90
19561;DHT22;9927;47.792;10.616;2023-07-20T02:50:18;19.80;99.90
19561;DHT22;9927;47.792;10.616;2023-07-20T02:52:45;19.70;99.90
19561;DHT22;9927;47.792;10.616;2023-07-20T02:55:12;19.70;99.90
19561;DHT22;9927;47.792;10.616;2023-07-20T02:57:40;19.70;99.90
19561;DHT22;9927;47.792;10.616;2023-07-20T03:00:07;19.80;99.90
19561;DHT22;9927;47.792;10.616;2023-07-20T03:02:35;19.70;99.90
19561;DHT22;9927;47.792;10.616;2023-07-20T03:05:02;19.60;99.90
19561;DHT22;9927;47.792;10.616;2023-07-20T03:07:33;19.50;99.90
19561;DHT22;9927;47.792;10.616;2023-07-20T03:10:00;19.30;99.90
19561;DHT22;9927;47.792;10.616;2023-07-20T03:12:27;19.10;99.90
19561;DHT22;9927;47.792;10.616;2023-07-20T03:14:54;18.90;99.90
19561;DHT22;9927;47.792;10.616;2023-07-20T03:17:24;18.90;99.90
19561;DHT22;9927;47.792;10.616;2023-07-20T03:19:51;18.90;99.90
19561;DHT22;9927;47.792;10.616;2023-07-20T03:22:18;18.90;99.90
19561;DHT22;9927;47.792;10.616;2023-07-20T03:24:45;18.90;99.90
19561;DHT22;9927;47.792;10.616;2023-07-20T03:27:13;18.80;99.90
19561;DHT22;9927;47.792;10.616;2023-07-20T03:29:40;18.80;99.90
19561;DHT22;9927;47.792;10.616;2023-07-20T03:32:08;18.70;99.90
19561;DHT22;9927;47.792;10.616;2023-07-20T03:34:35;18.60;99.90
19561;DHT22;9927;47.792;10.616;2023-07-20T03:37:02;18.50;99.90
19561;DHT22;9927;47.792;10.616;2023-07-20T03:39:31;18.50;99.90
19561;DHT22;9927;47.792;10.616;2023-07-20T03:41:59;18.60;99.90
19561;DHT22;9927;47.792;10.616;2023-07-20T03:44:26;18.70;99.90
19561;DHT22;9927;47.792;10.616;2023-07-20T03:46:54;18.70;99.90
19561;DHT22;9927;47.792;10.616;2023-07-20T03:49:21;18.50;99.90
19561;DHT22;9927;47.792;10.616;2023-07-20T03:51:48;18.60;99.90
19561;DHT22;9927;47.792;10.616;2023-07-20T03:54:16;18.60;99.90
19561;DHT22;9927;47.792;10.616;2023-07-20T03:56:43;18.60;99.90
19561;DHT22;9927;47.792;10.616;2023-07-20T03:59:11;18.50;99.90
19561;DHT22;9927;47.792;10.616;2023-07-20T04:01:38;18.50;99.90
19561;DHT22;9927;47.792;10.616;2023-07-20T04:04:07;18.40;99.90
19561;DHT22;9927;47.792;10.616;2023-07-20T04:06:35;18.50;99.90
19561;DHT22;9927;47.792;10.616;2023-07-20T04:09:03;18.40;99.90
19561;DHT22;9927;47.792;10.616;2023-07-20T04:11:31;18.40;99.90
19561;DHT22;9927;47.792;10.616;2023-07-20T04:13:59;18.50;99.90
19561;DHT22;9927;47.792;10.616;2023-07-20T04:16:26;18.40;99.90
19561;DHT22;9927;47.792;10.616;2023-07-20T04:18:57;18.50;99.90
19561;DHT22;9927;47.792;10.616;2023-07-20T04:21:26;18.60;99.90
19561;DHT22;9927;47.792;10.616;2023-07-20T04:23:54;18.60;99.90
19561;DHT22;9927;47.792;10.616;2023-07-20T04:26:21;18.60;99.90
19561;DHT22;9927;47.792;10.616;2023-07-20T04:28:49;18.60;99.90
19561;DHT22;9927;47.792;10.616;2023-07-20T04:31:17;18.60;99.90
19561;DHT22;9927;47.792;10.616;2023-07-20T04:33:45;18.70;99.90
19561;DHT22;9927;47.792;10.616;2023-07-20T04:36:12;18.70;99.90
19561;DHT22;9927;47.792;10.616;2023-07-20T04:38:42;18.60;99.90
19561;DHT22;9927;47.792;10.616;2023-07-20T04:41:09;18.60;99.90
19561;DHT22;9927;47.792;10.616;2023-07-20T04:43:36;18.50;99.90
19561;DHT22;9927;47.792;10.616;2023-07-20T04:46:04;18.60;99.90
19561;DHT22;9927;47.792;10.616;2023-07-20T04:48:31;18.70;99.90
19561;DHT22;9927;47.792;10.616;2023-07-20T04:50:58;18.70;99.90
19561;DHT22;9927;47.792;10.616;2023-07-20T04:53:25;18.60;99.90
19561;DHT22;9927;47.792;10.616;2023-07-20T04:55:53;18.60;99.90
19561;DHT22;9927;47.792;10.616;2023-07-20T04:58:22;18.70;99.90
19561;DHT22;9927;47.792;10.616;2023-07-20T05:00:49;18.70;99.90
19561;DHT22;9927;47.792;10.616;2023-07-20T05:03:17;18.80;99.90
19561;DHT22;9927;47.792;10.616;2023-07-20T05:05:46;18.80;99.90
19561;DHT22;9927;47.792;10.616;2023-07-20T05:08:16;18.80;99.90
19561;DHT22;9927;47.792;10.616;2023-07-20T05:10:43;18.90;99.90
19561;DHT22;9927;47.792;10.616;2023-07-20T05:13:11;19.00;99.90
19561;DHT22;9927;47.792;10.616;2023-07-20T05:15:38;19.00;99.90
19561;DHT22;9927;47.792;10.616;2023-07-20T05:18:05;19.00;99.90
19561;DHT22;9927;47.792;10.616;2023-07-20T05:20:34;19.00;99.90
19561;DHT22;9927;47.792;10.616;2023-07-20T05:23:01;19.00;99.90
19561;DHT22;9927;47.792;10.616;2023-07-20T05:25:29;19.00;99.90
19561;DHT22;9927;47.792;10.616;2023-07-20T05:27:57;19.00;99.90
19561;DHT22;9927;47.792;10.616;2023-07-20T05:30:25;19.00;99.90
19561;DHT22;9927;47.792;10.616;2023-07-20T05:32:52;19.00;99.90
19561;DHT22;9927;47.792;10.616;2023-07-20T05:35:21;19.10;99.90
19561;DHT22;9927;47.792;10.616;2023-07-20T05:37:49;19.20;99.90
19561;DHT22;9927;47.792;10.616;2023-07-20T05:40:16;19.30;99.90
19561;DHT22;9927;47.792;10.616;2023-07-20T05:42:48;19.50;99.90
19561;DHT22;9927;47.792;10.616;2023-07-20T05:45:19;19.60;99.90
19561;DHT22;9927;47.792;10.616;2023-07-20T05:47:47;19.60;99.90
19561;DHT22;9927;47.792;10.616;2023-07-20T05:50:14;19.60;99.90
19561;DHT22;9927;47.792;10.616;2023-07-20T05:52:42;19.50;99.90
19561;DHT22;9927;47.792;10.616;2023-07-20T05:55:09;19.30;99.90
19561;DHT22;9927;47.792;10.616;2023-07-20T05:57:36;19.40;99.90
19561;DHT22;9927;47.792;10.616;2023-07-20T06:00:07;19.50;99.90
19561;DHT22;9927;47.792;10.616;2023-07-20T06:02:34;19.90;99.90
19561;DHT22;9927;47.792;10.616;2023-07-20T06:05:01;20.10;99.90
19561;DHT22;9927;47.792;10.616;2023-07-20T06:07:29;20.00;99.90
19561;DHT22;9927;47.792;10.616;2023-07-20T06:09:56;19.90;99.90
19561;DHT22;9927;47.792;10.616;2023-07-20T06:12:23;20.00;99.90
19561;DHT22;9927;47.792;10.616;2023-07-20T06:14:50;20.10;99.90
19561;DHT22;9927;47.792;10.616;2023-07-20T06:17:18;20.10;99.90
19561;DHT22;9927;47.792;10.616;2023-07-20T06:19:45;20.90;99.90
19561;DHT22;9927;47.792;10.616;2023-07-20T06:22:12;20.90;99.90
19561;DHT22;9927;47.792;10.616;2023-07-20T06:24:39;20.90;99.90
19561;DHT22;9927;47.792;10.616;2023-07-20T06:27:07;20.90;99.90
19561;DHT22;9927;47.792;10.616;2023-07-20T06:29:34;20.80;99.90
19561;DHT22;9927;47.792;10.616;2023-07-20T06:32:01;20.70;99.90
19561;DHT22;9927;47.792;10.616;2023-07-20T06:34:28;20.70;99.90
19561;DHT22;9927;47.792;10.616;2023-07-20T06:36:56;20.50;99.90
19561;DHT22;9927;47.792;10.616;2023-07-20T06:39:24;20.50;99.90
19561;DHT22;9927;47.792;10.616;2023-07-20T06:41:54;20.40;99.90
19561;DHT22;9927;47.792;10.616;2023-07-20T06:44:22;20.40;99.90
19561;DHT22;9927;47.792;10.616;2023-07-20T06:46:49;20.40;99.90
19561;DHT22;9927;47.792;10.616;2023-07-20T06:49:26;20.50;99.90
19561;DHT22;9927;47.792;10.616;2023-07-20T06:51:54;21.10;99.90
19561;DHT22;9927;47.792;10.616;2023-07-20T06:54:22;21.90;99.90
19561;DHT22;9927;47.792;10.616;2023-07-20T06:56:50;22.50;99.90
19561;DHT22;9927;47.792;10.616;2023-07-20T06:59:21;22.50;99.90
19561;DHT22;9927;47.792;10.616;2023-07-20T07:01:48;23.10;99.90
19561;DHT22;9927;47.792;10.616;2023-07-20T07:04:16;23.90;99.90
19561;DHT22;9927;47.792;10.616;2023-07-20T07:06:43;24.40;99.90
19561;DHT22;9927;47.792;10.616;2023-07-20T07:09:11;24.00;99.90
19561;DHT22;9927;47.792;10.616;2023-07-20T07:11:38;23.40;99.90
19561;DHT22;9927;47.792;10.616;2023-07-20T07:14:06;23.20;99.90
19561;DHT22;9927;47.792;10.616;2023-07-20T07:16:34;23.20;99.90
19561;DHT22;9927;47.792;10.616;2023-07-20T07:19:05;23.00;99.90
19561;DHT22;9927;47.792;10.616;2023-07-20T07:21:34;22.90;99.90
19561;DHT22;9927;47.792;10.616;2023-07-20T07:24:01;22.70;99.90
19561;DHT22;9927;47.792;10.616;2023-07-20T07:26:28;22.70;99.90
19561;DHT22;9927;47.792;10.616;2023-07-20T07:28:56;22.80;99.90
19561;DHT22;9927;47.792;10.616;2023-07-20T07:31:25;22.90;99.90
19561;DHT22;9927;47.792;10.616;2023-07-20T07:33:52;22.80;99.90
19561;DHT22;9927;47.792;10.616;2023-07-20T07:36:19;23.00;99.90
19561;DHT22;9927;47.792;10.616;2023-07-20T07:38:47;22.80;99.90
19561;DHT22;9927;47.792;10.616;2023-07-20T07:41:34;22.90;99.90
19561;DHT22;9927;47.792;10.616;2023-07-20T07:44:02;22.70;99.90
19561;DHT22;9927;47.792;10.616;2023-07-20T07:46:29;23.20;99.90
19561;DHT22;9927;47.792;10.616;2023-07-20T07:48:56;23.70;99.90
19561;DHT22;9927;47.792;10.616;2023-07-20T07:51:24;23.50;99.90
19561;DHT22;9927;47.792;10.616;2023-07-20T07:53:51;23.30;99.20
19561;DHT22;9927;47.792;10.616;2023-07-20T07:56:18;23.10;99.90
19561;DHT22;9927;47.792;10.616;2023-07-20T07:58:51;22.90;99.90
19561;DHT22;9927;47.792;10.616;2023-07-20T08:01:21;22.80;99.90
19561;DHT22;9927;47.792;10.616;2023-07-20T08:03:49;22.80;99.90
19561;DHT22;9927;47.792;10.616;2023-07-20T08:06:17;22.80;99.90
19561;DHT22;9927;47.792;10.616;2023-07-20T08:08:44;22.60;99.90
19561;DHT22;9927;47.792;10.616;2023-07-20T08:11:11;22.60;99.90
19561;DHT22;9927;47.792;10.616;2023-07-20T08:13:41;22.70;99.90
19561;DHT22;9927;47.792;10.616;2023-07-20T08:16:09;22.70;99.90
19561;DHT22;9927;47.792;10.616;2023-07-20T08:18:36;22.60;99.90
19561;DHT22;9927;47.792;10.616;2023-07-20T08:21:04;22.80;99.90
19561;DHT22;9927;47.792;10.616;2023-07-20T08:23:31;22.90;99.90
19561;DHT22;9927;47.792;10.616;2023-07-20T08:25:58;22.90;99.90
19561;DHT22;9927;47.792;10.616;2023-07-20T08:28:26;23.10;99.70
19561;DHT22;9927;47.792;10.616;2023-07-20T08:30:53;23.00;99.90
19561;DHT22;9927;47.792;10.616;2023-07-20T08:33:21;23.00;99.90
19561;DHT22;9927;47.792;10.616;2023-07-20T08:35:48;23.00;99.80
19561;DHT22;9927;47.792;10.616;2023-07-20T08:38:16;22.80;99.90
19561;DHT22;9927;47.792;10.616;2023-07-20T08:40:46;23.00;99.90
19561;DHT22;9927;47.792;10.616;2023-07-20T08:43:14;22.90;99.90
19561;DHT22;9927;47.792;10.616;2023-07-20T08:45:46;22.70;99.20
19561;DHT22;9927;47.792;10.616;2023-07-20T08:48:15;22.60;99.50
19561;DHT22;9927;47.792;10.616;2023-07-20T08:50:45;22.80;99.40
19561;DHT22;9927;47.792;10.616;2023-07-20T08:53:14;22.70;99.60
19561;DHT22;9927;47.792;10.616;2023-07-20T08:55:46;22.80;99.90
19561;DHT22;9927;47.792;10.616;2023-07-20T08:58:16;23.10;99.90
19561;DHT22;9927;47.792;10.616;2023-07-20T09:00:44;23.40;99.50
19561;DHT22;9927;47.792;10.616;2023-07-20T09:03:14;23.80;98.80
19561;DHT22;9927;47.792;10.616;2023-07-20T09:05:42;24.50;97.60
19561;DHT22;9927;47.792;10.616;2023-07-20T09:08:09;24.70;95.50
19561;DHT22;9927;47.792;10.616;2023-07-20T09:10:36;24.40;94.60
19561;DHT22;9927;47.792;10.616;2023-07-20T09:13:03;24.00;95.20
19561;DHT22;9927;47.792;10.616;2023-07-20T09:15:31;23.80;95.70
19561;DHT22;9927;47.792;10.616;2023-07-20T09:18:01;23.60;97.30
19561;DHT22;9927;47.792;10.616;2023-07-20T09:20:31;23.40;95.60
19561;DHT22;9927;47.792;10.616;2023-07-20T09:22:59;23.30;93.00
19561;DHT22;9927;47.792;10.616;2023-07-20T09:25:27;23.50;94.60
19561;DHT22;9927;47.792;10.616;2023-07-20T09:28:02;24.20;96.20
19561;DHT22;9927;47.792;10.616;2023-07-20T09:30:32;24.50;94.10
19561;DHT22;9927;47.792;10.616;2023-07-20T09:33:00;25.00;94.70
19561;DHT22;9927;47.792;10.616;2023-07-20T09:35:27;25.60;94.40
19561;DHT22;9927;47.792;10.616;2023-07-20T09:38:08;25.90;94.10
19561;DHT22;9927;47.792;10.616;2023-07-20T09:40:40;26.10;93.60
19561;DHT22;9927;47.792;10.616;2023-07-20T09:43:10;26.10;92.10
19561;DHT22;9927;47.792;10.616;2023-07-20T09:45:41;26.00;90.90
19561;DHT22;9927;47.792;10.616;2023-07-20T09:48:12;26.10;91.40
19561;DHT22;9927;47.792;10.616;2023-07-20T09:50:51;26.30;91.60
19561;DHT22;9927;47.792;10.616;2023-07-20T09:53:19;26.50;91.90
19561;DHT22;9927;47.792;10.616;2023-07-20T09:55:47;26.80;90.50
19561;DHT22;9927;47.792;10.616;2023-07-20T09:58:15;27.30;89.00
19561;DHT22;9927;47.792;10.616;2023-07-20T10:00:44;27.70;91.20
19561;DHT22;9927;47.792;10.616;2023-07-20T10:03:21;27.60;84.00
19561;DHT22;9927;47.792;10.616;2023-07-20T10:06:00;27.00;87.00
19561;DHT22;9927;47.792;10.616;2023-07-20T10:08:30;26.80;87.70
19561;DHT22;9927;47.792;10.616;2023-07-20T10:11:02;26.90;86.20
19561;DHT22;9927;47.792;10.616;2023-07-20T10:13:31;26.30;84.70
19561;DHT22;9927;47.792;10.616;2023-07-20T10:16:03;26.00;90.20
19561;DHT22;9927;47.792;10.616;2023-07-20T10:18:41;26.50;88.50
19561;DHT22;9927;47.792;10.616;2023-07-20T10:21:09;27.00;90.00
19561;DHT22;9927;47.792;10.616;2023-07-20T10:23:39;26.80;85.60
19561;DHT22;9927;47.792;10.616;2023-07-20T10:26:07;26.30;86.60
19561;DHT22;9927;47.792;10.616;2023-07-20T10:28:37;25.90;90.70
19561;DHT22;9927;47.792;10.616;2023-07-20T10:31:11;25.60;90.40
19561;DHT22;9927;47.792;10.616;2023-07-20T10:33:40;25.80;91.10
19561;DHT22;9927;47.792;10.616;2023-07-20T10:36:08;25.90;90.10
19561;DHT22;9927;47.792;10.616;2023-07-20T10:41:32;26.20;90.20
19561;DHT22;9927;47.792;10.616;2023-07-20T10:44:09;26.10;89.80
19561;DHT22;9927;47.792;10.616;2023-07-20T10:49:09;26.40;91.00
19561;DHT22;9927;47.792;10.616;2023-07-20T10:51:44;26.80;89.50
19561;DHT22;9927;47.792;10.616;2023-07-20T10:56:47;26.70;84.70
19561;DHT22;9927;47.792;10.616;2023-07-20T11:01:55;26.80;89.70
19561;DHT22;9927;47.792;10.616;2023-07-20T11:04:39;26.90;89.60
19561;DHT22;9927;47.792;10.616;2023-07-20T11:07:08;27.00;87.40
19561;DHT22;9927;47.792;10.616;2023-07-20T11:09:36;27.00;87.20
19561;DHT22;9927;47.792;10.616;2023-07-20T11:12:16;27.00;89.00
19561;DHT22;9927;47.792;10.616;2023-07-20T11:14:56;26.90;86.40
19561;DHT22;9927;47.792;10.616;2023-07-20T11:17:31;26.80;86.70
19561;DHT22;9927;47.792;10.616;2023-07-20T11:19:59;26.60;86.10
19561;DHT22;9927;47.792;10.616;2023-07-20T11:22:33;26.10;87.60
19561;DHT22;9927;47.792;10.616;2023-07-20T11:25:01;25.90;88.20
19561;DHT22;9927;47.792;10.616;2023-07-20T11:27:28;25.70;85.70
19561;DHT22;9927;47.792;10.616;2023-07-20T11:29:56;25.60;89.60
19561;DHT22;9927;47.792;10.616;2023-07-20T11:32:24;25.90;90.40
19561;DHT22;9927;47.792;10.616;2023-07-20T11:34:52;26.30;90.90
19561;DHT22;9927;47.792;10.616;2023-07-20T11:37:19;26.50;90.70
19561;DHT22;9927;47.792;10.616;2023-07-20T11:39:46;26.40;87.80
19561;DHT22;9927;47.792;10.616;2023-07-20T11:42:14;26.70;89.40
19561;DHT22;9927;47.792;10.616;2023-07-20T11:45:03;26.60;87.20
19561;DHT22;9927;47.792;10.616;2023-07-20T11:47:32;26.70;90.10
19561;DHT22;9927;47.792;10.616;2023-07-20T11:50:04;26.90;88.70
19561;DHT22;9927;47.792;10.616;2023-07-20T11:52:32;27.00;86.90
19561;DHT22;9927;47.792;10.616;2023-07-20T11:55:00;26.90;88.30
19561;DHT22;9927;47.792;10.616;2023-07-20T11:57:29;27.00;87.30
19561;DHT22;9927;47.792;10.616;2023-07-20T11:59:57;27.00;89.60
19561;DHT22;9927;47.792;10.616;2023-07-20T12:02:27;27.20;90.10
19561;DHT22;9927;47.792;10.616;2023-07-20T12:04:55;27.40;88.70
19561;DHT22;9927;47.792;10.616;2023-07-20T12:07:26;27.40;85.50
19561;DHT22;9927;47.792;10.616;2023-07-20T12:10:11;27.30;82.00
19561;DHT22;9927;47.792;10.616;2023-07-20T12:12:40;27.00;88.90
19561;DHT22;9927;47.792;10.616;2023-07-20T12:15:25;27.00;86.60
19561;DHT22;9927;47.792;10.616;2023-07-20T12:18:01;26.30;82.30
19561;DHT22;9927;47.792;10.616;2023-07-20T12:20:35;26.20;87.50
19561;DHT22;9927;47.792;10.616;2023-07-20T12:23:09;26.20;88.30
19561;DHT22;9927;47.792;10.616;2023-07-20T12:25:38;26.40;91.50
19561;DHT22;9927;47.792;10.616;2023-07-20T12:28:11;26.40;89.40
19561;DHT22;9927;47.792;10.616;2023-07-20T12:30:40;26.40;89.30
19561;DHT22;9927;47.792;10.616;2023-07-20T12:33:07;26.50;88.60
19561;DHT22;9927;47.792;10.616;2023-07-20T12:35:35;26.60;91.00
19561;DHT22;9927;47.792;10.616;2023-07-20T12:38:02;26.80;90.50
19561;DHT22;9927;47.792;10.616;2023-07-20T12:40:29;26.90;87.90
19561;DHT22;9927;47.792;10.616;2023-07-20T12:42:57;27.10;91.30
19561;DHT22;9927;47.792;10.616;2023-07-20T12:45:24;27.20;90.80
19561;DHT22;9927;47.792;10.616;2023-07-20T12:47:52;27.30;87.80
19561;DHT22;9927;47.792;10.616;2023-07-20T12:50:19;27.30;88.70
19561;DHT22;9927;47.792;10.616;2023-07-20T12:52:47;27.00;83.70
19561;DHT22;9927;47.792;10.616;2023-07-20T12:55:14;26.70;86.60
19561;DHT22;9927;47.792;10.616;2023-07-20T12:57:46;27.00;90.50
19561;DHT22;9927;47.792;10.616;2023-07-20T13:00:14;27.00;89.50
19561;DHT22;9927;47.792;10.616;2023-07-20T13:02:42;27.20;88.40
19561;DHT22;9927;47.792;10.616;2023-07-20T13:05:10;27.30;86.70
19561;DHT22;9927;47.792;10.616;2023-07-20T13:07:38;27.30;90.30
19561;DHT22;9927;47.792;10.616;2023-07-20T13:10:10;27.50;87.80
19561;DHT22;9927;47.792;10.616;2023-07-20T13:12:38;27.50;84.40
19561;DHT22;9927;47.792;10.616;2023-07-20T13:15:08;27.20;79.80
19561;DHT22;9927;47.792;10.616;2023-07-20T13:17:36;26.90;82.40
19561;DHT22;9927;47.792;10.616;2023-07-20T13:20:05;26.60;84.10
19561;DHT22;9927;47.792;10.616;2023-07-20T13:22:33;26.60;89.00
19561;DHT22;9927;47.792;10.616;2023-07-20T13:25:02;26.70;88.70
19561;DHT22;9927;47.792;10.616;2023-07-20T13:27:29;26.90;90.30
19561;DHT22;9927;47.792;10.616;2023-07-20T13:29:59;26.90;87.00
19561;DHT22;9927;47.792;10.616;2023-07-20T13:32:30;27.10;81.80
19561;DHT22;9927;47.792;10.616;2023-07-20T13:35:00;27.00;83.90
19561;DHT22;9927;47.792;10.616;2023-07-20T13:37:31;27.00;85.50
19561;DHT22;9927;47.792;10.616;2023-07-20T13:39:58;27.00;83.70
19561;DHT22;9927;47.792;10.616;2023-07-20T13:42:25;27.20;85.40
19561;DHT22;9927;47.792;10.616;2023-07-20T13:44:53;27.30;84.60
19561;DHT22;9927;47.792;10.616;2023-07-20T13:47:20;27.10;82.20
19561;DHT22;9927;47.792;10.616;2023-07-20T13:49:48;27.20;85.00
19561;DHT22;9927;47.792;10.616;2023-07-20T13:52:29;27.10;83.70
19561;DHT22;9927;47.792;10.616;2023-07-20T13:55:00;26.90;83.20
19561;DHT22;9927;47.792;10.616;2023-07-20T13:57:31;27.10;81.60
19561;DHT22;9927;47.792;10.616;2023-07-20T14:00:03;27.10;83.30
19561;DHT22;9927;47.792;10.616;2023-07-20T14:02:32;27.00;80.90
19561;DHT22;9927;47.792;10.616;2023-07-20T14:05:02;27.10;82.80
19561;DHT22;9927;47.792;10.616;2023-07-20T14:07:32;27.20;83.30
19561;DHT22;9927;47.792;10.616;2023-07-20T14:09:59;27.40;81.50
19561;DHT22;9927;47.792;10.616;2023-07-20T14:12:29;27.50;84.60
19561;DHT22;9927;47.792;10.616;2023-07-20T14:14:57;27.60;81.90
19561;DHT22;9927;47.792;10.616;2023-07-20T14:17:24;27.60;81.30
19561;DHT22;9927;47.792;10.616;2023-07-20T14:19:53;27.60;82.00
19561;DHT22;9927;47.792;10.616;2023-07-20T14:22:20;27.70;81.20
19561;DHT22;9927;47.792;10.616;2023-07-20T14:24:47;27.90;81.60
19561;DHT22;9927;47.792;10.616;2023-07-20T14:27:15;27.90;78.90
19561;DHT22;9927;47.792;10.616;2023-07-20T14:29:42;27.70;76.50
19561;DHT22;9927;47.792;10.616;2023-07-20T14:32:09;27.40;80.60
19561;DHT22;9927;47.792;10.616;2023-07-20T14:34:37;27.30;82.00
19561;DHT22;9927;47.792;10.616;2023-07-20T14:37:06;27.30;81.60
19561;DHT22;9927;47.792;10.616;2023-07-20T14:39:33;27.30;79.00
19561;DHT22;9927;47.792;10.616;2023-07-20T14:42:00;27.50;81.30
19561;DHT22;9927;47.792;10.616;2023-07-20T14:44:28;27.40;78.10
19561;DHT22;9927;47.792;10.616;2023-07-20T14:46:55;27.50;81.00
19561;DHT22;9927;47.792;10.616;2023-07-20T14:49:40;27.60;80.00
19561;DHT22;9927;47.792;10.616;2023-07-20T14:52:08;27.70;79.20
19561;DHT22;9927;47.792;10.616;2023-07-20T14:54:38;27.70;80.70
19561;DHT22;9927;47.792;10.616;2023-07-20T14:57:05;27.90;81.60
19561;DHT22;9927;47.792;10.616;2023-07-20T14:59:40;28.10;80.80
19561;DHT22;9927;47.792;10.616;2023-07-20T15:02:11;28.20;79.00
19561;DHT22;9927;47.792;10.616;2023-07-20T15:04:48;28.30;78.90
19561;DHT22;9927;47.792;10.616;2023-07-20T15:07:17;28.50;82.00
19561;DHT22;9927;47.792;10.616;2023-07-20T15:09:45;28.70;81.10
19561;DHT22;9927;47.792;10.616;2023-07-20T15:12:13;28.80;81.10
19561;DHT22;9927;47.792;10.616;2023-07-20T15:14:41;28.90;78.70
19561;DHT22;9927;47.792;10.616;2023-07-20T15:17:10;28.80;79.10
19561;DHT22;9927;47.792;10.616;2023-07-20T15:19:37;28.60;76.20
19561;DHT22;9927;47.792;10.616;2023-07-20T15:22:05;28.30;78.10
19561;DHT22;9927;47.792;10.616;2023-07-20T15:24:34;28.50;79.10
19561;DHT22;9927;47.792;10.616;2023-07-20T15:27:01;28.70;80.40
19561;DHT22;9927;47.792;10.616;2023-07-20T15:29:34;28.90;79.30
19561;DHT22;9927;47.792;10.616;2023-07-20T15:32:03;28.90;79.50
19561;DHT22;9927;47.792;10.616;2023-07-20T15:34:30;29.00;78.60
19561;DHT22;9927;47.792;10.616;2023-07-20T15:36:57;29.10;77.00
19561;DHT22;9927;47.792;10.616;2023-07-20T15:39:25;29.20;75.10
19561;DHT22;9927;47.792;10.616;2023-07-20T15:41:55;29.10;75.60
19561;DHT22;9927;47.792;10.616;2023-07-20T15:44:22;29.10;72.10
19561;DHT22;9927;47.792;10.616;2023-07-20T15:46:50;28.60;74.70
19561;DHT22;9927;47.792;10.616;2023-07-20T15:49:17;28.20;75.60
19561;DHT22;9927;47.792;10.616;2023-07-20T15:51:45;28.00;77.30
19561;DHT22;9927;47.792;10.616;2023-07-20T15:54:14;28.10;77.80
19561;DHT22;9927;47.792;10.616;2023-07-20T15:56:43;28.00;78.50